JAL33LR RJOO-RJKA
Flight info
| Callsign | JAL33LR |
|---|---|
| Flight time | 1h 22m |
| Altitude | 32000 |
| Route | TIGER MAIKO AWAJI Y232 KRE SUKMO Y50 DONKY Y75 ALTAI Y758 TUMGI |
| Aircraft | B738/M-SDE2E3FGHIRWXY/LB1 |
Departure
| Time | 2026-05-07 15:09 |
|---|---|
| Airport | Osaka Itami International Airport (RJOO) |
Arrival
| Time | 2026-05-07 16:32 |
|---|---|
| Airport | Amami Airport (RJKA) |
| Time | Latitude | Longitude | Altitude | Speed | Heading |
|---|---|---|---|---|---|
| 2026-05-07 14:50 | 34.78880 | 135.44055 | 43 ft | 0 kts | 165° |
| 2026-05-07 15:04 | 34.78878 | 135.44055 | 43 ft | 2 kts | 165° |
| 2026-05-07 15:04 | 34.78852 | 135.44041 | 41 ft | 6 kts | 225° |
| 2026-05-07 15:04 | 34.78807 | 135.44046 | 40 ft | 7 kts | 135° |
| 2026-05-07 15:04 | 34.78770 | 135.44090 | 41 ft | 8 kts | 135° |
| 2026-05-07 15:05 | 34.78707 | 135.44167 | 43 ft | 17 kts | 135° |
| 2026-05-07 15:05 | 34.78614 | 135.44278 | 45 ft | 18 kts | 132° |
| 2026-05-07 15:05 | 34.78548 | 135.44334 | 46 ft | 9 kts | 176° |
| 2026-05-07 15:05 | 34.78447 | 135.44336 | 45 ft | 17 kts | 179° |
| 2026-05-07 15:06 | 34.78328 | 135.44336 | 45 ft | 17 kts | 180° |
| 2026-05-07 15:06 | 34.78205 | 135.44334 | 42 ft | 12 kts | 180° |
| 2026-05-07 15:06 | 34.78142 | 135.44376 | 41 ft | 12 kts | 134° |
| 2026-05-07 15:06 | 34.78059 | 135.44475 | 39 ft | 21 kts | 136° |
| 2026-05-07 15:07 | 34.77951 | 135.44609 | 37 ft | 22 kts | 134° |
| 2026-05-07 15:07 | 34.77837 | 135.44745 | 35 ft | 23 kts | 135° |
| 2026-05-07 15:07 | 34.77718 | 135.44888 | 35 ft | 23 kts | 133° |
| 2026-05-07 15:07 | 34.77604 | 135.45030 | 33 ft | 24 kts | 136° |
| 2026-05-07 15:08 | 34.77495 | 135.45160 | 31 ft | 20 kts | 135° |
| 2026-05-07 15:08 | 34.77400 | 135.45276 | 32 ft | 19 kts | 144° |
| 2026-05-07 15:08 | 34.77280 | 135.45291 | 31 ft | 15 kts | 210° |
| 2026-05-07 15:08 | 34.77253 | 135.45177 | 31 ft | 17 kts | 292° |
| 2026-05-07 15:09 | 34.77374 | 135.45003 | 31 ft | 39 kts | 313° |
| 2026-05-07 15:09 | 34.77729 | 135.44569 | 35 ft | 112 kts | 315° |
| 2026-05-07 15:09 | 34.78460 | 135.43680 | 82 ft | 177 kts | 315° |
| 2026-05-07 15:09 | 34.79209 | 135.42570 | 1078 ft | 169 kts | 295° |
| 2026-05-07 15:10 | 34.79695 | 135.41292 | 1910 ft | 179 kts | 289° |
| 2026-05-07 15:10 | 34.79833 | 135.39767 | 2702 ft | 187 kts | 253° |
| 2026-05-07 15:10 | 34.79182 | 135.38496 | 3721 ft | 183 kts | 227° |
| 2026-05-07 15:10 | 34.78161 | 135.37419 | 4278 ft | 210 kts | 213° |
| 2026-05-07 15:11 | 34.76749 | 135.36896 | 5177 ft | 224 kts | 184° |
| 2026-05-07 15:11 | 34.75140 | 135.37213 | 5793 ft | 252 kts | 171° |
| 2026-05-07 15:11 | 34.73405 | 135.37660 | 6765 ft | 261 kts | 175° |
| 2026-05-07 15:11 | 34.71547 | 135.37617 | 7619 ft | 271 kts | 193° |
| 2026-05-07 15:12 | 34.69776 | 135.37144 | 8828 ft | 269 kts | 197° |
| 2026-05-07 15:12 | 34.67967 | 135.36586 | 9893 ft | 273 kts | 197° |
| 2026-05-07 15:12 | 34.66193 | 135.35925 | 11011 ft | 271 kts | 208° |
| 2026-05-07 15:12 | 34.64695 | 135.34448 | 11546 ft | 290 kts | 235° |
| 2026-05-07 15:13 | 34.63878 | 135.32190 | 12353 ft | 304 kts | 254° |
| 2026-05-07 15:13 | 34.63554 | 135.29604 | 13037 ft | 321 kts | 265° |
| 2026-05-07 15:13 | 34.63908 | 135.26846 | 13672 ft | 345 kts | 288° |
| 2026-05-07 15:13 | 34.65152 | 135.24283 | 14296 ft | 368 kts | 304° |
| 2026-05-07 15:14 | 34.66813 | 135.21855 | 14848 ft | 382 kts | 301° |
| 2026-05-07 15:14 | 34.67955 | 135.18935 | 15562 ft | 384 kts | 281° |
| 2026-05-07 15:14 | 34.68132 | 135.15727 | 16510 ft | 381 kts | 262° |
| 2026-05-07 15:14 | 34.67504 | 135.12648 | 17414 ft | 382 kts | 249° |
| 2026-05-07 15:15 | 34.66351 | 135.09727 | 18212 ft | 388 kts | 238° |
| 2026-05-07 15:15 | 34.64704 | 135.07111 | 19110 ft | 391 kts | 230° |
| 2026-05-07 15:15 | 34.62864 | 135.04710 | 19900 ft | 397 kts | 228° |
| 2026-05-07 15:15 | 34.60893 | 135.02301 | 20696 ft | 402 kts | 227° |
| 2026-05-07 15:16 | 34.58932 | 134.99931 | 21446 ft | 406 kts | 227° |
| 2026-05-07 15:16 | 34.56936 | 134.97485 | 22157 ft | 411 kts | 228° |
| 2026-05-07 15:16 | 34.54938 | 134.94995 | 22949 ft | 414 kts | 229° |
| 2026-05-07 15:16 | 34.52945 | 134.92479 | 23589 ft | 420 kts | 229° |
| 2026-05-07 15:17 | 34.50924 | 134.89909 | 24249 ft | 425 kts | 229° |
| 2026-05-07 15:17 | 34.48893 | 134.87314 | 24992 ft | 427 kts | 229° |
| 2026-05-07 15:17 | 34.46824 | 134.84662 | 25589 ft | 433 kts | 230° |
| 2026-05-07 15:17 | 34.44752 | 134.82002 | 26131 ft | 439 kts | 229° |
| 2026-05-07 15:18 | 34.42666 | 134.79332 | 26784 ft | 442 kts | 229° |
| 2026-05-07 15:18 | 34.40523 | 134.76592 | 27243 ft | 449 kts | 229° |
| 2026-05-07 15:18 | 34.38408 | 134.73891 | 28232 ft | 444 kts | 229° |
| 2026-05-07 15:18 | 34.36297 | 134.71207 | 29257 ft | 437 kts | 229° |
| 2026-05-07 15:19 | 34.34240 | 134.68597 | 30336 ft | 429 kts | 229° |
| 2026-05-07 15:19 | 34.32184 | 134.65990 | 31168 ft | 427 kts | 229° |
| 2026-05-07 15:19 | 34.30133 | 134.63384 | 31947 ft | 425 kts | 229° |
| 2026-05-07 15:19 | 34.28076 | 134.60763 | 32726 ft | 423 kts | 230° |
| 2026-05-07 15:20 | 34.26070 | 134.58209 | 33384 ft | 423 kts | 229° |
| 2026-05-07 15:20 | 34.24029 | 134.55617 | 33887 ft | 427 kts | 230° |
| 2026-05-07 15:20 | 34.21991 | 134.53032 | 34571 ft | 426 kts | 230° |
| 2026-05-07 15:20 | 34.19937 | 134.50433 | 35389 ft | 423 kts | 230° |
| 2026-05-07 15:21 | 34.17902 | 134.47861 | 35845 ft | 426 kts | 230° |
| 2026-05-07 15:21 | 34.15850 | 134.45265 | 35897 ft | 431 kts | 230° |
| 2026-05-07 15:21 | 34.11738 | 134.40067 | 35907 ft | 422 kts | 230° |
| 2026-05-07 15:22 | 34.07695 | 134.34966 | 35913 ft | 421 kts | 230° |
| 2026-05-07 15:22 | 34.03655 | 134.29871 | 35916 ft | 421 kts | 230° |
| 2026-05-07 15:23 | 33.99607 | 134.24771 | 35926 ft | 422 kts | 230° |
| 2026-05-07 15:23 | 33.95543 | 134.19659 | 35934 ft | 420 kts | 230° |
| 2026-05-07 15:24 | 33.91519 | 134.14603 | 35947 ft | 421 kts | 230° |
| 2026-05-07 15:24 | 33.87471 | 134.09528 | 35942 ft | 421 kts | 230° |
| 2026-05-07 15:25 | 33.83390 | 134.04417 | 35938 ft | 422 kts | 230° |
| 2026-05-07 15:25 | 33.79338 | 133.99350 | 35936 ft | 423 kts | 230° |
| 2026-05-07 15:26 | 33.75281 | 133.94278 | 35942 ft | 422 kts | 230° |
| 2026-05-07 15:26 | 33.71184 | 133.89163 | 35944 ft | 424 kts | 230° |
| 2026-05-07 15:27 | 33.67117 | 133.84099 | 35939 ft | 422 kts | 230° |
| 2026-05-07 15:27 | 33.63027 | 133.79019 | 35932 ft | 422 kts | 230° |
| 2026-05-07 15:28 | 33.58951 | 133.73961 | 35927 ft | 424 kts | 230° |
| 2026-05-07 15:28 | 33.54883 | 133.68860 | 35919 ft | 422 kts | 232° |
| 2026-05-07 15:29 | 33.51278 | 133.63379 | 35911 ft | 418 kts | 238° |
| 2026-05-07 15:29 | 33.47953 | 133.57671 | 35906 ft | 419 kts | 239° |
| 2026-05-07 15:30 | 33.44633 | 133.51924 | 35903 ft | 418 kts | 238° |
| 2026-05-07 15:30 | 33.41313 | 133.46230 | 35902 ft | 420 kts | 239° |
| 2026-05-07 15:31 | 33.37976 | 133.40556 | 35903 ft | 418 kts | 238° |
| 2026-05-07 15:31 | 33.34621 | 133.34878 | 35907 ft | 418 kts | 238° |
| 2026-05-07 15:32 | 33.31239 | 133.29176 | 35904 ft | 419 kts | 238° |
| 2026-05-07 15:32 | 33.27877 | 133.23518 | 35900 ft | 418 kts | 238° |
| 2026-05-07 15:33 | 33.24499 | 133.17830 | 35908 ft | 419 kts | 238° |
| 2026-05-07 15:33 | 33.21162 | 133.12144 | 35910 ft | 419 kts | 238° |
| 2026-05-07 15:34 | 33.17825 | 133.06438 | 35914 ft | 419 kts | 238° |
| 2026-05-07 15:34 | 33.14511 | 133.00789 | 35917 ft | 418 kts | 238° |
| 2026-05-07 15:35 | 33.11170 | 132.95103 | 35918 ft | 418 kts | 238° |
| 2026-05-07 15:35 | 33.07835 | 132.89447 | 35911 ft | 418 kts | 238° |
| 2026-05-07 15:36 | 33.04479 | 132.83766 | 35912 ft | 418 kts | 238° |
| 2026-05-07 15:36 | 33.01149 | 132.78134 | 35909 ft | 416 kts | 238° |
| 2026-05-07 15:37 | 32.97790 | 132.72456 | 35916 ft | 418 kts | 238° |
| 2026-05-07 15:37 | 32.94463 | 132.66843 | 35909 ft | 418 kts | 238° |
| 2026-05-07 15:38 | 32.91106 | 132.61188 | 35908 ft | 415 kts | 238° |
| 2026-05-07 15:38 | 32.87768 | 132.55571 | 35910 ft | 419 kts | 238° |
| 2026-05-07 15:39 | 32.84433 | 132.49968 | 35905 ft | 415 kts | 238° |
| 2026-05-07 15:39 | 32.81085 | 132.44353 | 35906 ft | 417 kts | 238° |
| 2026-05-07 15:40 | 32.77732 | 132.38733 | 35903 ft | 415 kts | 238° |
| 2026-05-07 15:40 | 32.74406 | 132.33171 | 35904 ft | 416 kts | 237° |
| 2026-05-07 15:41 | 32.71074 | 132.27608 | 35903 ft | 414 kts | 237° |
| 2026-05-07 15:41 | 32.67691 | 132.22067 | 35898 ft | 414 kts | 235° |
| 2026-05-07 15:42 | 32.63623 | 132.17191 | 35899 ft | 423 kts | 221° |
| 2026-05-07 15:42 | 32.58660 | 132.13348 | 35898 ft | 425 kts | 216° |
| 2026-05-07 15:43 | 32.53568 | 132.09831 | 35904 ft | 426 kts | 215° |
| 2026-05-07 15:43 | 32.48436 | 132.06280 | 35898 ft | 426 kts | 215° |
| 2026-05-07 15:44 | 32.43320 | 132.02699 | 35883 ft | 427 kts | 216° |
| 2026-05-07 15:44 | 32.38246 | 131.99126 | 35888 ft | 426 kts | 216° |
| 2026-05-07 15:45 | 32.33163 | 131.95535 | 35886 ft | 426 kts | 216° |
| 2026-05-07 15:45 | 32.28088 | 131.91956 | 35887 ft | 426 kts | 216° |
| 2026-05-07 15:46 | 32.20453 | 131.86575 | 35890 ft | 424 kts | 216° |
| 2026-05-07 15:47 | 32.15400 | 131.83022 | 35906 ft | 423 kts | 216° |
| 2026-05-07 15:47 | 32.10331 | 131.79463 | 35912 ft | 424 kts | 216° |
| 2026-05-07 15:48 | 32.05264 | 131.75911 | 35918 ft | 424 kts | 216° |
| 2026-05-07 15:48 | 32.00201 | 131.72366 | 35915 ft | 424 kts | 216° |
| 2026-05-07 15:49 | 31.95116 | 131.68813 | 35915 ft | 423 kts | 216° |
| 2026-05-07 15:49 | 31.90046 | 131.65271 | 35929 ft | 425 kts | 216° |
| 2026-05-07 15:50 | 31.84953 | 131.61713 | 35928 ft | 424 kts | 216° |
| 2026-05-07 15:50 | 31.79895 | 131.58188 | 35934 ft | 425 kts | 216° |
| 2026-05-07 15:51 | 31.74824 | 131.54657 | 35936 ft | 422 kts | 216° |
| 2026-05-07 15:51 | 31.69731 | 131.51119 | 35936 ft | 426 kts | 216° |
| 2026-05-07 15:52 | 31.64630 | 131.47578 | 35933 ft | 425 kts | 217° |
| 2026-05-07 15:52 | 31.59528 | 131.44037 | 35941 ft | 426 kts | 217° |
| 2026-05-07 15:53 | 31.54444 | 131.40518 | 35939 ft | 424 kts | 217° |
| 2026-05-07 15:53 | 31.49349 | 131.36993 | 35943 ft | 424 kts | 217° |
| 2026-05-07 15:54 | 31.44274 | 131.33490 | 35935 ft | 425 kts | 217° |
| 2026-05-07 15:54 | 31.39184 | 131.29979 | 35937 ft | 427 kts | 217° |
| 2026-05-07 15:55 | 31.34085 | 131.26468 | 35940 ft | 425 kts | 217° |
| 2026-05-07 15:55 | 31.28939 | 131.22926 | 35932 ft | 428 kts | 217° |
| 2026-05-07 15:56 | 31.23838 | 131.19418 | 35932 ft | 426 kts | 217° |
| 2026-05-07 15:56 | 31.18749 | 131.15922 | 35935 ft | 426 kts | 217° |
| 2026-05-07 15:57 | 31.13626 | 131.12418 | 35933 ft | 428 kts | 217° |
| 2026-05-07 15:57 | 31.08461 | 131.08885 | 35934 ft | 429 kts | 217° |
| 2026-05-07 15:58 | 31.03361 | 131.05412 | 35930 ft | 425 kts | 218° |
| 2026-05-07 15:58 | 30.98186 | 131.01880 | 35924 ft | 431 kts | 217° |
| 2026-05-07 15:59 | 30.93042 | 130.98367 | 35938 ft | 428 kts | 217° |
| 2026-05-07 15:59 | 30.87886 | 130.94855 | 35943 ft | 426 kts | 217° |
| 2026-05-07 16:00 | 30.82761 | 130.91359 | 35945 ft | 429 kts | 217° |
| 2026-05-07 16:00 | 30.77602 | 130.87866 | 35947 ft | 427 kts | 217° |
| 2026-05-07 16:01 | 30.72440 | 130.84361 | 35952 ft | 430 kts | 217° |
| 2026-05-07 16:01 | 30.67263 | 130.80850 | 35947 ft | 428 kts | 217° |
| 2026-05-07 16:02 | 30.62144 | 130.77385 | 35948 ft | 429 kts | 217° |
| 2026-05-07 16:02 | 30.57003 | 130.73912 | 35948 ft | 427 kts | 217° |
| 2026-05-07 16:03 | 30.51879 | 130.70451 | 35944 ft | 426 kts | 217° |
| 2026-05-07 16:03 | 30.46722 | 130.66971 | 35943 ft | 429 kts | 217° |
| 2026-05-07 16:04 | 30.41594 | 130.63519 | 35946 ft | 426 kts | 217° |
| 2026-05-07 16:04 | 30.36462 | 130.60062 | 35953 ft | 429 kts | 217° |
| 2026-05-07 16:05 | 30.31282 | 130.56576 | 35955 ft | 428 kts | 217° |
| 2026-05-07 16:05 | 30.26125 | 130.53126 | 35964 ft | 428 kts | 217° |
| 2026-05-07 16:06 | 30.20958 | 130.49666 | 35968 ft | 429 kts | 217° |
| 2026-05-07 16:06 | 30.15821 | 130.46230 | 35962 ft | 425 kts | 217° |
| 2026-05-07 16:07 | 30.10664 | 130.42790 | 35956 ft | 429 kts | 217° |
| 2026-05-07 16:07 | 30.05491 | 130.39343 | 35951 ft | 428 kts | 217° |
| 2026-05-07 16:08 | 30.00211 | 130.36087 | 35953 ft | 437 kts | 211° |
| 2026-05-07 16:08 | 29.94525 | 130.33615 | 35957 ft | 439 kts | 205° |
| 2026-05-07 16:09 | 29.88680 | 130.31456 | 35920 ft | 443 kts | 205° |
| 2026-05-07 16:09 | 29.85729 | 130.30377 | 35642 ft | 444 kts | 205° |
| 2026-05-07 16:09 | 29.82762 | 130.29285 | 35361 ft | 443 kts | 205° |
| 2026-05-07 16:09 | 29.79846 | 130.28206 | 35081 ft | 440 kts | 205° |
| 2026-05-07 16:10 | 29.76916 | 130.27115 | 34799 ft | 440 kts | 205° |
| 2026-05-07 16:10 | 29.73998 | 130.26022 | 34523 ft | 442 kts | 205° |
| 2026-05-07 16:10 | 29.71078 | 130.24925 | 34244 ft | 442 kts | 204° |
| 2026-05-07 16:10 | 29.68146 | 130.23824 | 33964 ft | 440 kts | 204° |
| 2026-05-07 16:11 | 29.65232 | 130.22726 | 33684 ft | 441 kts | 204° |
| 2026-05-07 16:11 | 29.62299 | 130.21620 | 33410 ft | 444 kts | 204° |
| 2026-05-07 16:11 | 29.59380 | 130.20520 | 33024 ft | 445 kts | 204° |
| 2026-05-07 16:11 | 29.56427 | 130.19408 | 32191 ft | 444 kts | 204° |
| 2026-05-07 16:12 | 29.53513 | 130.18309 | 31212 ft | 444 kts | 204° |
| 2026-05-07 16:12 | 29.50589 | 130.17207 | 30232 ft | 445 kts | 204° |
| 2026-05-07 16:12 | 29.47633 | 130.16095 | 29228 ft | 445 kts | 204° |
| 2026-05-07 16:12 | 29.44704 | 130.14993 | 28227 ft | 445 kts | 203° |
| 2026-05-07 16:13 | 29.41768 | 130.13887 | 27179 ft | 446 kts | 203° |
| 2026-05-07 16:13 | 29.38808 | 130.12775 | 26083 ft | 447 kts | 203° |
| 2026-05-07 16:13 | 29.35890 | 130.11679 | 24952 ft | 449 kts | 203° |
| 2026-05-07 16:13 | 29.32918 | 130.10565 | 23809 ft | 449 kts | 202° |
| 2026-05-07 16:14 | 29.29982 | 130.09467 | 23195 ft | 437 kts | 202° |
| 2026-05-07 16:14 | 29.27116 | 130.08400 | 22999 ft | 424 kts | 203° |
| 2026-05-07 16:14 | 29.24307 | 130.07356 | 22936 ft | 423 kts | 202° |
| 2026-05-07 16:14 | 29.21534 | 130.06322 | 22325 ft | 421 kts | 202° |
| 2026-05-07 16:15 | 29.18761 | 130.05289 | 21577 ft | 415 kts | 202° |
| 2026-05-07 16:15 | 29.16031 | 130.04269 | 20754 ft | 412 kts | 202° |
| 2026-05-07 16:15 | 29.13326 | 130.03259 | 20025 ft | 406 kts | 202° |
| 2026-05-07 16:15 | 29.10650 | 130.02260 | 19155 ft | 404 kts | 202° |
| 2026-05-07 16:16 | 29.08026 | 130.01279 | 18411 ft | 399 kts | 202° |
| 2026-05-07 16:16 | 29.05394 | 130.00297 | 17653 ft | 394 kts | 202° |
| 2026-05-07 16:16 | 29.02813 | 129.99335 | 16833 ft | 392 kts | 202° |
| 2026-05-07 16:16 | 29.00251 | 129.98379 | 16450 ft | 377 kts | 201° |
| 2026-05-07 16:17 | 28.97791 | 129.97467 | 15986 ft | 367 kts | 201° |
| 2026-05-07 16:17 | 28.95378 | 129.96570 | 15273 ft | 365 kts | 201° |
| 2026-05-07 16:17 | 28.92969 | 129.95673 | 14564 ft | 362 kts | 201° |
| 2026-05-07 16:17 | 28.90591 | 129.94788 | 13907 ft | 358 kts | 201° |
| 2026-05-07 16:18 | 28.88213 | 129.93904 | 13173 ft | 356 kts | 201° |
| 2026-05-07 16:18 | 28.85865 | 129.93031 | 12512 ft | 353 kts | 201° |
| 2026-05-07 16:18 | 28.83565 | 129.92178 | 11869 ft | 349 kts | 201° |
| 2026-05-07 16:18 | 28.81274 | 129.91330 | 11257 ft | 344 kts | 201° |
| 2026-05-07 16:19 | 28.79040 | 129.90505 | 11058 ft | 327 kts | 201° |
| 2026-05-07 16:19 | 28.76902 | 129.89717 | 10860 ft | 312 kts | 201° |
| 2026-05-07 16:19 | 28.74902 | 129.88969 | 10714 ft | 297 kts | 203° |
| 2026-05-07 16:19 | 28.73063 | 129.88002 | 10578 ft | 280 kts | 216° |
| 2026-05-07 16:20 | 28.71656 | 129.86591 | 10457 ft | 264 kts | 230° |
| 2026-05-07 16:20 | 28.70464 | 129.85010 | 10223 ft | 264 kts | 232° |
| 2026-05-07 16:20 | 28.69288 | 129.83411 | 9984 ft | 262 kts | 232° |
| 2026-05-07 16:20 | 28.68107 | 129.81860 | 9746 ft | 259 kts | 231° |
| 2026-05-07 16:21 | 28.66901 | 129.80318 | 9507 ft | 259 kts | 230° |
| 2026-05-07 16:21 | 28.65695 | 129.78793 | 9266 ft | 259 kts | 230° |
| 2026-05-07 16:21 | 28.64486 | 129.77267 | 9024 ft | 258 kts | 230° |
| 2026-05-07 16:21 | 28.63280 | 129.75746 | 8783 ft | 257 kts | 230° |
| 2026-05-07 16:22 | 28.62094 | 129.74249 | 8545 ft | 257 kts | 230° |
| 2026-05-07 16:22 | 28.60888 | 129.72725 | 8300 ft | 256 kts | 230° |
| 2026-05-07 16:22 | 28.59701 | 129.71227 | 8059 ft | 254 kts | 230° |
| 2026-05-07 16:22 | 28.58518 | 129.69731 | 7817 ft | 255 kts | 230° |
| 2026-05-07 16:23 | 28.57333 | 129.68237 | 7577 ft | 254 kts | 230° |
| 2026-05-07 16:23 | 28.56144 | 129.66739 | 7332 ft | 253 kts | 230° |
| 2026-05-07 16:23 | 28.54968 | 129.65256 | 7088 ft | 252 kts | 230° |
| 2026-05-07 16:23 | 28.53806 | 129.63791 | 6848 ft | 252 kts | 230° |
| 2026-05-07 16:24 | 28.52629 | 129.62308 | 6606 ft | 251 kts | 230° |
| 2026-05-07 16:24 | 28.51461 | 129.60838 | 6362 ft | 249 kts | 230° |
| 2026-05-07 16:24 | 28.50291 | 129.59363 | 6184 ft | 248 kts | 230° |
| 2026-05-07 16:24 | 28.49140 | 129.57915 | 6177 ft | 247 kts | 230° |
| 2026-05-07 16:25 | 28.47970 | 129.56439 | 6173 ft | 250 kts | 230° |
| 2026-05-07 16:25 | 28.46770 | 129.55006 | 6167 ft | 251 kts | 224° |
| 2026-05-07 16:25 | 28.45291 | 129.53949 | 6125 ft | 252 kts | 202° |
| 2026-05-07 16:25 | 28.43580 | 129.53508 | 5748 ft | 254 kts | 191° |
| 2026-05-07 16:26 | 28.41830 | 129.53241 | 5301 ft | 256 kts | 191° |
| 2026-05-07 16:26 | 28.40075 | 129.52943 | 4992 ft | 252 kts | 192° |
| 2026-05-07 16:26 | 28.38361 | 129.52599 | 4931 ft | 242 kts | 194° |
| 2026-05-07 16:26 | 28.37283 | 129.52368 | 4911 ft | 232 kts | 194° |
| 2026-05-07 16:27 | 28.35209 | 129.52040 | 4731 ft | 224 kts | 182° |
| 2026-05-07 16:27 | 28.33699 | 129.52501 | 4430 ft | 230 kts | 149° |
| 2026-05-07 16:27 | 28.32569 | 129.53786 | 4122 ft | 237 kts | 130° |
| 2026-05-07 16:27 | 28.31590 | 129.55309 | 3895 ft | 233 kts | 128° |
| 2026-05-07 16:28 | 28.30623 | 129.56786 | 3614 ft | 232 kts | 129° |
| 2026-05-07 16:28 | 28.29646 | 129.58225 | 3335 ft | 231 kts | 129° |
| 2026-05-07 16:28 | 28.28787 | 129.59788 | 2976 ft | 236 kts | 113° |
| 2026-05-07 16:28 | 28.28602 | 129.61618 | 2603 ft | 240 kts | 78° |
| 2026-05-07 16:29 | 28.29341 | 129.63226 | 2477 ft | 225 kts | 48° |
| 2026-05-07 16:29 | 28.30472 | 129.64337 | 2460 ft | 204 kts | 33° |
| 2026-05-07 16:29 | 28.31677 | 129.65112 | 2244 ft | 199 kts | 24° |
| 2026-05-07 16:29 | 28.32931 | 129.65753 | 2049 ft | 192 kts | 23° |
| 2026-05-07 16:30 | 28.34110 | 129.66386 | 1805 ft | 187 kts | 25° |
| 2026-05-07 16:30 | 28.35251 | 129.67013 | 1532 ft | 173 kts | 24° |
| 2026-05-07 16:30 | 28.36291 | 129.67584 | 1374 ft | 156 kts | 25° |
| 2026-05-07 16:30 | 28.37276 | 129.68120 | 1113 ft | 156 kts | 24° |
| 2026-05-07 16:31 | 28.38245 | 129.68649 | 885 ft | 152 kts | 23° |
| 2026-05-07 16:31 | 28.39184 | 129.69147 | 701 ft | 146 kts | 24° |
| 2026-05-07 16:31 | 28.40078 | 129.69634 | 504 ft | 140 kts | 25° |
| 2026-05-07 16:31 | 28.40951 | 129.70106 | 328 ft | 142 kts | 24° |
| 2026-05-07 16:32 | 28.41838 | 129.70592 | 145 ft | 142 kts | 24° |
| 2026-05-07 16:32 | 28.42706 | 129.71062 | 25 ft | 129 kts | 25° |
| 2026-05-07 16:32 | 28.43275 | 129.71372 | 20 ft | 45 kts | 26° |
| 2026-05-07 16:32 | 28.43456 | 129.71460 | 20 ft | 13 kts | 354° |
| 2026-05-07 16:33 | 28.43495 | 129.71419 | 20 ft | 6 kts | 289° |
| 2026-05-07 16:33 | 28.43515 | 129.71370 | 21 ft | 9 kts | 295° |
| 2026-05-07 16:33 | 28.43519 | 129.71300 | 23 ft | 9 kts | 228° |
| 2026-05-07 16:33 | 28.43431 | 129.71248 | 23 ft | 21 kts | 206° |
| 2026-05-07 16:34 | 28.43286 | 129.71167 | 23 ft | 23 kts | 205° |
| 2026-05-07 16:34 | 28.43157 | 129.71095 | 23 ft | 12 kts | 207° |
| 2026-05-07 16:34 | 28.43140 | 129.71022 | 25 ft | 10 kts | 282° |
| 2026-05-07 16:34 | 28.43150 | 129.70949 | 25 ft | 8 kts | 290° |
| 2026-05-07 16:35 | 28.43161 | 129.70921 | 25 ft | 0 kts | 295° |
| 2026-05-07 16:40 | 28.43162 | 129.70920 | 24 ft | 0 kts | 295° |